createdAt,value
2023-04-17T00:00:32.372Z,68.13
2023-04-17T00:03:01.417Z,68.43
2023-04-17T00:05:28.451Z,68.73
2023-04-17T00:07:54.981Z,68.10
2023-04-17T00:10:21.517Z,69.15
2023-04-17T00:12:48.106Z,69.29
2023-04-17T00:15:14.675Z,68.84
2023-04-17T00:17:41.206Z,67.61
2023-04-17T00:20:10.718Z,67.37
2023-04-17T00:22:38.181Z,67.05
2023-04-17T00:25:05.371Z,67.47
2023-04-17T00:27:31.942Z,67.58
2023-04-17T00:29:58.640Z,67.50
2023-04-17T00:32:25.408Z,67.86
2023-04-17T00:34:54.387Z,67.45
2023-04-17T00:37:22.169Z,66.96
2023-04-17T00:39:48.814Z,68.87
2023-04-17T00:42:15.450Z,67.74
2023-04-17T00:44:41.965Z,66.90
2023-04-17T00:47:08.520Z,66.84
2023-04-17T00:49:35.142Z,67.02
2023-04-17T00:52:01.969Z,67.41
2023-04-17T00:54:29.395Z,67.37
2023-04-17T00:56:56.643Z,67.87
2023-04-17T00:59:24.015Z,67.29
2023-04-17T01:01:50.513Z,68.12
2023-04-17T01:04:17.193Z,67.39
2023-04-17T01:06:43.763Z,67.19
2023-04-17T01:09:11.518Z,67.16
2023-04-17T01:11:39.206Z,66.78
2023-04-17T01:14:05.857Z,67.06
2023-04-17T01:16:33.782Z,67.66
2023-04-17T01:19:00.827Z,67.11
2023-04-17T01:21:28.147Z,66.88
2023-04-17T01:23:55.182Z,66.65
2023-04-17T01:26:26.252Z,66.64
2023-04-17T01:28:55.305Z,66.32
2023-04-17T01:31:22.459Z,66.61
2023-04-17T01:33:49.919Z,66.76
2023-04-17T01:36:17.120Z,66.26
2023-04-17T01:38:43.991Z,65.98
2023-04-17T01:41:10.797Z,66.29
2023-04-17T01:43:39.219Z,67.60
2023-04-17T01:46:06.368Z,68.04
2023-04-17T01:48:33.476Z,67.33
2023-04-17T01:51:00.393Z,67.30
2023-04-17T01:53:27.230Z,67.53
2023-04-17T01:55:54.445Z,67.74
2023-04-17T01:58:20.984Z,67.86
2023-04-17T02:00:48.999Z,68.17
2023-04-17T02:03:15.802Z,67.28
2023-04-17T02:05:46.597Z,67.31
2023-04-17T02:08:16.094Z,66.61
2023-04-17T02:10:43.037Z,66.89
2023-04-17T02:13:11.171Z,66.53
2023-04-17T02:15:41.032Z,66.35
2023-04-17T02:18:07.976Z,66.66
2023-04-17T02:20:35.841Z,66.74
2023-04-17T02:23:03.566Z,67.03
2023-04-17T02:25:31.553Z,66.97
2023-04-17T02:27:58.145Z,67.27
2023-04-17T02:30:25.361Z,66.84
2023-04-17T02:32:55.021Z,66.92
2023-04-17T02:35:23.838Z,67.60
2023-04-17T02:37:50.911Z,67.39
2023-04-17T02:40:17.904Z,66.87
2023-04-17T02:42:44.394Z,67.16
2023-04-17T02:45:12.884Z,67.41
2023-04-17T02:47:39.840Z,66.74
2023-04-17T02:50:07.044Z,67.94
2023-04-17T02:52:40.484Z,67.16
2023-04-17T02:55:07.264Z,66.88
2023-04-17T02:57:34.129Z,66.68
2023-04-17T03:00:01.509Z,67.29
2023-04-17T03:02:30.637Z,68.33
2023-04-17T03:04:57.222Z,67.15
2023-04-17T03:07:27.370Z,66.63
2023-04-17T03:09:54.232Z,66.93
2023-04-17T03:12:20.904Z,66.63
2023-04-17T03:14:47.448Z,66.81
2023-04-17T03:17:15.331Z,66.90
2023-04-17T03:19:42.125Z,66.32
2023-04-17T03:22:08.875Z,66.41
2023-04-17T03:24:35.723Z,66.78
2023-04-17T03:27:02.898Z,66.24
2023-04-17T03:29:37.078Z,66.92
2023-04-17T03:32:03.808Z,67.00
2023-04-17T03:34:31.536Z,67.86
2023-04-17T03:36:58.942Z,67.47
2023-04-17T03:39:25.876Z,67.58
2023-04-17T03:41:52.735Z,68.53
2023-04-17T03:44:19.273Z,67.88
2023-04-17T03:46:45.845Z,68.49
2023-04-17T03:49:12.827Z,68.10
2023-04-17T03:51:39.899Z,68.01
2023-04-17T03:54:12.594Z,67.75
2023-04-17T03:56:41.092Z,68.15
2023-04-17T03:59:08.097Z,67.74
2023-04-17T04:01:40.154Z,67.36
2023-04-17T04:04:27.148Z,66.82
2023-04-17T04:07:03.674Z,67.23
2023-04-17T04:09:30.671Z,67.23
2023-04-17T04:11:58.249Z,69.02
2023-04-17T04:14:25.885Z,67.93
2023-04-17T04:16:52.885Z,68.21
2023-04-17T04:19:20.007Z,68.02
2023-04-17T04:21:47.219Z,68.53
2023-04-17T04:24:14.741Z,68.56
2023-04-17T04:26:42.482Z,68.28
2023-04-17T04:29:10.019Z,67.80
2023-04-17T04:31:51.767Z,68.41
2023-04-17T04:34:25.337Z,68.12
2023-04-17T04:36:52.330Z,68.30
2023-04-17T04:39:29.963Z,68.79
2023-04-17T04:42:05.737Z,68.66
2023-04-17T04:44:40.918Z,68.60
2023-04-17T04:47:09.049Z,68.07
2023-04-17T04:49:36.139Z,68.70
2023-04-17T04:52:02.851Z,69.24
2023-04-17T04:54:32.880Z,68.87
2023-04-17T04:57:01.365Z,69.29
2023-04-17T04:59:28.391Z,68.80
2023-04-17T05:02:14.141Z,67.78
2023-04-17T05:04:41.293Z,67.38
2023-04-17T05:07:07.984Z,68.51
2023-04-17T05:09:37.678Z,68.20
2023-04-17T05:12:05.560Z,68.24
2023-04-17T05:14:32.594Z,68.23
2023-04-17T05:16:59.283Z,68.86
2023-04-17T05:19:29.729Z,69.76
2023-04-17T05:22:01.118Z,69.79
2023-04-17T05:24:28.779Z,69.64
2023-04-17T05:26:55.345Z,69.68
2023-04-17T05:29:25.108Z,68.70
2023-04-17T05:31:53.299Z,69.49
2023-04-17T05:34:38.751Z,69.11
2023-04-17T05:37:05.437Z,68.52
2023-04-17T05:39:31.944Z,67.88
2023-04-17T05:41:58.444Z,67.73
2023-04-17T05:44:25.297Z,69.34
2023-04-17T05:46:51.951Z,70.40
2023-04-17T05:49:18.506Z,70.71
2023-04-17T05:51:45.243Z,69.21
2023-04-17T05:54:12.588Z,68.50
2023-04-17T05:56:39.774Z,70.17
2023-04-17T05:59:06.253Z,69.04
2023-04-17T06:01:33.721Z,69.42
2023-04-17T06:04:02.195Z,68.70
2023-04-17T06:06:29.088Z,69.70
2023-04-17T06:08:56.724Z,69.41
2023-04-17T06:11:24.154Z,69.04
2023-04-17T06:13:52.488Z,69.16
2023-04-17T06:16:19.356Z,68.70
2023-04-17T06:18:47.814Z,69.06
2023-04-17T06:21:14.831Z,69.19
2023-04-17T06:23:41.328Z,69.53
2023-04-17T06:26:08.027Z,70.36
2023-04-17T06:28:34.596Z,70.21
2023-04-17T06:31:01.476Z,69.28
2023-04-17T06:33:28.007Z,69.18
2023-04-17T06:35:56.040Z,68.96
2023-04-17T06:38:44.793Z,69.22
2023-04-17T06:41:12.072Z,69.56
2023-04-17T06:43:40.450Z,69.62
2023-04-17T06:46:14.285Z,70.09
2023-04-17T06:48:40.882Z,69.35
2023-04-17T06:51:07.525Z,69.18
2023-04-17T06:53:34.037Z,68.73
2023-04-17T06:56:00.639Z,68.09
2023-04-17T06:58:27.197Z,68.81
2023-04-17T07:00:53.752Z,68.49
2023-04-17T07:03:20.411Z,69.37
2023-04-17T07:05:47.191Z,69.02
2023-04-17T07:08:15.864Z,68.05
2023-04-17T07:10:42.502Z,68.48
2023-04-17T07:13:09.211Z,68.56
2023-04-17T07:15:35.801Z,68.61
2023-04-17T07:18:03.064Z,69.46
2023-04-17T07:20:30.286Z,68.28
2023-04-17T07:22:57.330Z,68.46
2023-04-17T07:25:23.971Z,69.66
2023-04-17T07:27:50.467Z,69.80
2023-04-17T07:30:17.025Z,70.40
2023-04-17T07:32:43.955Z,71.37
2023-04-17T07:35:10.524Z,69.73
2023-04-17T07:37:37.143Z,70.31
2023-04-17T07:40:05.607Z,70.56
2023-04-17T07:42:32.131Z,69.84
2023-04-17T07:44:58.770Z,70.56
2023-04-17T07:47:25.522Z,70.69
2023-04-17T07:49:52.091Z,70.18
2023-04-17T07:52:18.716Z,70.34
2023-04-17T07:54:45.618Z,70.11
2023-04-17T07:57:12.312Z,69.32
2023-04-17T07:59:38.916Z,69.20
2023-04-17T08:02:05.849Z,69.01
2023-04-17T08:04:33.346Z,70.19
2023-04-17T08:07:00.465Z,69.25
2023-04-17T08:09:27.246Z,69.83
2023-04-17T08:11:57.540Z,69.42
2023-04-17T08:14:25.005Z,69.12
2023-04-17T08:16:51.788Z,69.04
2023-04-17T08:19:18.364Z,68.96
2023-04-17T08:21:47.395Z,68.91
2023-04-17T08:24:13.906Z,69.46
2023-04-17T08:26:40.709Z,69.88
2023-04-17T08:29:08.210Z,69.83
2023-04-17T08:31:39.754Z,70.38
2023-04-17T08:34:13.764Z,69.28
2023-04-17T08:36:41.805Z,68.46
2023-04-17T08:39:10.239Z,67.68
2023-04-17T08:41:45.156Z,68.29
2023-04-17T08:44:11.871Z,67.72
2023-04-17T08:46:38.931Z,67.25
2023-04-17T08:49:05.816Z,67.68
2023-04-17T08:51:32.716Z,67.90
2023-04-17T08:53:59.248Z,67.70
2023-04-17T08:56:26.340Z,67.34
2023-04-17T08:58:52.952Z,68.17
2023-04-17T09:01:20.701Z,68.77
2023-04-17T09:03:48.862Z,68.65
2023-04-17T09:06:16.006Z,67.98
2023-04-17T09:08:59.106Z,67.81
2023-04-17T09:11:26.392Z,67.83
2023-04-17T09:13:53.036Z,67.38
2023-04-17T09:16:20.423Z,67.81
2023-04-17T09:18:48.402Z,67.71
2023-04-17T09:21:16.602Z,67.27
2023-04-17T09:23:46.173Z,67.00
2023-04-17T09:26:14.861Z,67.66
2023-04-17T09:28:43.624Z,67.06
2023-04-17T09:31:19.044Z,67.26
2023-04-17T09:34:02.384Z,68.05
2023-04-17T09:36:30.831Z,67.30
2023-04-17T09:39:00.046Z,67.87
2023-04-17T09:41:39.099Z,67.65
2023-04-17T09:44:06.441Z,67.34
2023-04-17T09:46:42.634Z,67.21
2023-04-17T09:49:14.465Z,67.24
2023-04-17T09:51:41.611Z,67.04
2023-04-17T09:54:10.177Z,66.95
2023-04-17T09:56:37.901Z,66.95
2023-04-17T09:59:05.570Z,67.13
2023-04-17T10:01:33.909Z,66.66
2023-04-17T10:04:01.790Z,66.52
2023-04-17T10:06:32.078Z,66.49
2023-04-17T10:08:58.719Z,66.02
2023-04-17T10:11:28.774Z,66.87
2023-04-17T10:14:15.902Z,66.67
2023-04-17T10:16:47.070Z,66.54
2023-04-17T10:19:31.148Z,66.88
2023-04-17T10:22:18.004Z,66.16
2023-04-17T10:24:51.780Z,66.00
2023-04-17T10:27:24.394Z,65.55
2023-04-17T10:29:55.035Z,64.85
2023-04-17T10:32:24.355Z,65.42
2023-04-17T10:34:52.148Z,65.45
2023-04-17T10:37:19.029Z,65.32
2023-04-17T10:39:54.880Z,65.29
2023-04-17T10:42:22.978Z,63.68
2023-04-17T10:44:50.839Z,63.97
2023-04-17T10:47:20.614Z,63.01
2023-04-17T10:49:52.243Z,64.36
2023-04-17T10:52:41.338Z,65.60
2023-04-17T10:55:10.181Z,63.95
2023-04-17T10:58:00.662Z,64.19
2023-04-17T11:00:35.879Z,63.36
2023-04-17T11:03:03.599Z,63.28
2023-04-17T11:05:35.464Z,64.31
2023-04-17T11:08:02.019Z,63.49
2023-04-17T11:10:28.634Z,62.44
2023-04-17T11:12:57.803Z,63.80
2023-04-17T11:15:32.167Z,64.41
2023-04-17T11:17:59.433Z,64.21
2023-04-17T11:20:30.510Z,62.75
2023-04-17T11:23:01.234Z,61.36
2023-04-17T11:25:33.466Z,62.89
2023-04-17T11:28:06.743Z,61.65
2023-04-17T11:30:35.036Z,62.33
2023-04-17T11:33:03.343Z,61.26
2023-04-17T11:35:38.174Z,63.53
2023-04-17T11:38:12.641Z,62.01
2023-04-17T11:40:43.606Z,62.05
2023-04-17T11:43:10.641Z,63.22
2023-04-17T11:45:38.045Z,61.69
2023-04-17T11:48:05.369Z,64.19
2023-04-17T11:50:32.691Z,63.02
2023-04-17T11:53:03.692Z,63.84
2023-04-17T11:55:31.723Z,63.02
2023-04-17T11:57:59.837Z,63.66
2023-04-17T12:00:29.900Z,64.11
2023-04-17T12:02:58.126Z,64.71
2023-04-17T12:05:25.345Z,65.00
2023-04-17T12:08:05.910Z,66.09
2023-04-17T12:10:43.019Z,66.79
2023-04-17T12:13:10.808Z,66.37
2023-04-17T12:15:38.280Z,66.58
2023-04-17T12:18:05.798Z,66.01
2023-04-17T12:20:33.995Z,65.14
2023-04-17T12:23:00.841Z,65.79
2023-04-17T12:25:27.501Z,64.72
2023-04-17T12:27:54.325Z,64.40
2023-04-17T12:30:20.913Z,64.54
2023-04-17T12:32:48.887Z,63.59
2023-04-17T12:35:16.016Z,64.85
2023-04-17T12:37:48.253Z,64.13
2023-04-17T12:40:16.752Z,63.15
2023-04-17T12:42:49.303Z,63.35
2023-04-17T12:45:16.553Z,62.92
2023-04-17T12:47:43.717Z,65.11
2023-04-17T12:50:14.068Z,64.10
2023-04-17T12:52:41.431Z,65.10
2023-04-17T12:55:09.085Z,64.60
2023-04-17T12:57:36.615Z,65.69
2023-04-17T13:00:06.216Z,64.66
2023-04-17T13:02:32.975Z,64.30
2023-04-17T13:04:59.598Z,65.65
2023-04-17T13:07:26.705Z,65.23
2023-04-17T13:09:53.296Z,65.41
2023-04-17T13:12:19.829Z,63.84
2023-04-17T13:14:46.332Z,63.13
2023-04-17T13:17:14.540Z,64.88
2023-04-17T13:19:42.267Z,63.32
2023-04-17T13:22:09.032Z,63.96
2023-04-17T13:24:36.880Z,64.77
2023-04-17T13:27:03.720Z,63.33
2023-04-17T13:29:30.917Z,64.35
2023-04-17T13:31:57.514Z,63.79
2023-04-17T13:34:24.416Z,64.09
2023-04-17T13:36:51.000Z,62.63
2023-04-17T13:39:17.530Z,62.28
2023-04-17T13:41:44.120Z,62.02
2023-04-17T13:44:10.891Z,62.04
2023-04-17T13:46:37.585Z,61.24
2023-04-17T13:49:04.117Z,61.23
2023-04-17T13:51:31.781Z,61.34
2023-04-17T13:54:01.263Z,62.42
2023-04-17T13:56:27.900Z,62.51
2023-04-17T13:58:55.609Z,61.24
2023-04-17T14:01:22.157Z,61.69
2023-04-17T14:03:48.830Z,60.49
2023-04-17T14:06:17.794Z,60.11
2023-04-17T14:08:46.197Z,59.51
2023-04-17T14:11:14.076Z,60.39
2023-04-17T14:13:40.558Z,58.58
2023-04-17T14:16:07.557Z,60.51
2023-04-17T14:18:34.185Z,60.97
2023-04-17T14:21:00.812Z,61.11
2023-04-17T14:23:27.444Z,62.21
2023-04-17T14:25:53.916Z,60.96
2023-04-17T14:28:21.280Z,59.47
2023-04-17T14:30:48.288Z,61.69
2023-04-17T14:33:15.029Z,59.86
2023-04-17T14:35:41.585Z,60.06
2023-04-17T14:38:08.308Z,60.28
2023-04-17T14:40:34.961Z,61.71
2023-04-17T14:43:01.940Z,60.58
2023-04-17T14:45:28.527Z,60.48
2023-04-17T14:47:55.160Z,60.71
2023-04-17T14:50:21.839Z,62.29
2023-04-17T14:52:48.362Z,60.55
2023-04-17T14:55:15.010Z,57.57
2023-04-17T14:57:41.593Z,58.77
2023-04-17T15:00:08.648Z,59.79
2023-04-17T15:02:38.547Z,60.59
2023-04-17T15:05:06.451Z,59.83
2023-04-17T15:07:33.081Z,59.75
2023-04-17T15:09:59.977Z,60.64
2023-04-17T15:12:26.988Z,59.36
2023-04-17T15:14:53.733Z,59.73
2023-04-17T15:17:20.325Z,58.61
2023-04-17T15:19:46.908Z,59.13
2023-04-17T15:22:13.484Z,59.58
2023-04-17T15:24:40.015Z,59.64
2023-04-17T15:27:06.607Z,61.37
2023-04-17T15:29:33.129Z,60.97
2023-04-17T15:32:00.726Z,60.37
2023-04-17T15:34:27.234Z,59.98
2023-04-17T15:36:54.372Z,61.23
2023-04-17T15:39:20.994Z,61.66
2023-04-17T15:41:47.982Z,61.97
2023-04-17T15:44:14.589Z,60.10
2023-04-17T15:46:41.602Z,59.88
2023-04-17T15:49:09.413Z,61.56
2023-04-17T15:51:36.334Z,60.26
2023-04-17T15:54:02.869Z,59.80
2023-04-17T15:56:29.326Z,58.37
2023-04-17T15:58:55.828Z,59.05
2023-04-17T16:01:22.392Z,59.49
2023-04-17T16:03:49.058Z,57.28
2023-04-17T16:06:15.794Z,59.28
2023-04-17T16:08:42.826Z,58.49
2023-04-17T16:11:10.926Z,59.55
2023-04-17T16:13:37.531Z,59.34
2023-04-17T16:16:05.397Z,58.61
2023-04-17T16:18:31.913Z,58.35
2023-04-17T16:20:58.392Z,56.85
2023-04-17T16:23:25.008Z,59.36
2023-04-17T16:25:51.658Z,58.61
2023-04-17T16:28:18.132Z,59.31
2023-04-17T16:30:45.117Z,59.06
2023-04-17T16:33:11.633Z,58.41
2023-04-17T16:35:38.142Z,58.59
2023-04-17T16:38:04.762Z,59.32
2023-04-17T16:40:31.280Z,58.78
2023-04-17T16:42:58.042Z,59.59
2023-04-17T16:45:24.520Z,59.59
2023-04-17T16:47:51.194Z,59.57
2023-04-17T16:50:18.007Z,60.77
2023-04-17T16:52:44.571Z,59.97
2023-04-17T16:55:11.324Z,59.31
2023-04-17T16:57:40.049Z,60.14
2023-04-17T17:00:07.742Z,59.02
2023-04-17T17:02:34.383Z,58.30
2023-04-17T17:05:01.247Z,59.74
2023-04-17T17:07:27.753Z,60.53
2023-04-17T17:09:54.245Z,59.58
2023-04-17T17:12:20.735Z,58.46
2023-04-17T17:14:47.219Z,59.28
2023-04-17T17:17:13.772Z,57.92
2023-04-17T17:19:40.712Z,58.79
2023-04-17T17:22:07.236Z,59.71
2023-04-17T17:24:33.785Z,59.59
2023-04-17T17:27:00.605Z,60.12
2023-04-17T17:29:27.093Z,60.29
2023-04-17T17:31:53.606Z,60.54
2023-04-17T17:34:26.641Z,60.34
2023-04-17T17:36:54.082Z,60.63
2023-04-17T17:39:21.786Z,60.56
2023-04-17T17:41:49.489Z,60.18
2023-04-17T17:44:16.051Z,58.73
2023-04-17T17:46:42.582Z,59.11
2023-04-17T17:49:09.661Z,59.42
2023-04-17T17:51:36.162Z,60.37
2023-04-17T17:54:02.653Z,59.79
2023-04-17T17:56:29.194Z,58.75
2023-04-17T17:58:56.075Z,59.14
2023-04-17T18:01:25.510Z,59.75
2023-04-17T18:03:53.189Z,60.74
2023-04-17T18:06:20.276Z,59.69
2023-04-17T18:08:46.892Z,58.27
2023-04-17T18:11:13.806Z,58.73
2023-04-17T18:13:40.336Z,59.28
2023-04-17T18:16:07.046Z,60.33
2023-04-17T18:18:33.624Z,60.21
2023-04-17T18:21:00.191Z,59.49
2023-04-17T18:23:26.796Z,60.48
2023-04-17T18:25:59.874Z,60.51
2023-04-17T18:28:26.910Z,60.16
2023-04-17T18:30:53.419Z,59.41
2023-04-17T18:33:20.129Z,59.21
2023-04-17T18:35:46.659Z,61.06
2023-04-17T18:38:13.166Z,61.40
2023-04-17T18:40:39.685Z,61.67
2023-04-17T18:43:06.240Z,61.40
2023-04-17T18:45:32.811Z,61.19
2023-04-17T18:47:59.458Z,61.24
2023-04-17T18:50:26.980Z,61.07
2023-04-17T18:52:53.538Z,60.32
2023-04-17T18:55:20.246Z,61.55
2023-04-17T18:57:46.720Z,62.32
2023-04-17T19:00:13.478Z,62.23
2023-04-17T19:02:40.827Z,60.87
2023-04-17T19:05:08.235Z,60.82
2023-04-17T19:07:34.751Z,60.25
2023-04-17T19:10:01.275Z,61.14
2023-04-17T19:12:27.804Z,62.74
2023-04-17T19:14:57.092Z,61.86
2023-04-17T19:17:25.388Z,61.74
2023-04-17T19:19:52.070Z,62.15
2023-04-17T19:22:18.637Z,61.05
2023-04-17T19:24:49.701Z,61.68
2023-04-17T19:27:16.975Z,61.59
2023-04-17T19:29:43.522Z,61.67
2023-04-17T19:32:10.914Z,61.79
2023-04-17T19:34:37.748Z,62.21
2023-04-17T19:37:04.645Z,60.41
2023-04-17T19:39:31.503Z,61.18
2023-04-17T19:41:58.016Z,60.73
2023-04-17T19:44:25.985Z,60.30
2023-04-17T19:46:54.323Z,61.16
2023-04-17T19:49:21.036Z,59.22
2023-04-17T19:51:47.556Z,59.92
2023-04-17T19:54:15.248Z,60.56
2023-04-17T19:56:41.815Z,59.20
2023-04-17T19:59:12.244Z,59.31
2023-04-17T20:01:40.017Z,60.65
2023-04-17T20:04:08.023Z,60.02
2023-04-17T20:06:34.629Z,60.00
2023-04-17T20:09:03.170Z,61.12
2023-04-17T20:11:29.694Z,59.77
2023-04-17T20:13:56.219Z,59.80
2023-04-17T20:16:24.006Z,59.55
2023-04-17T20:18:51.825Z,59.53
2023-04-17T20:21:18.717Z,58.64
2023-04-17T20:23:45.700Z,61.07
2023-04-17T20:26:12.244Z,61.36
2023-04-17T20:28:38.721Z,59.69
2023-04-17T20:31:05.521Z,59.08
2023-04-17T20:33:32.225Z,60.16
2023-04-17T20:35:58.869Z,59.43
2023-04-17T20:38:25.743Z,58.54
2023-04-17T20:40:52.275Z,58.42
2023-04-17T20:43:18.904Z,58.31
2023-04-17T20:45:45.405Z,59.55
2023-04-17T20:48:11.897Z,59.12
2023-04-17T20:50:38.432Z,59.41
2023-04-17T20:53:04.936Z,58.44
2023-04-17T20:55:31.445Z,57.79
2023-04-17T20:57:57.905Z,58.34
2023-04-17T21:00:24.425Z,58.43
2023-04-17T21:02:50.970Z,58.74
2023-04-17T21:05:19.199Z,59.04
2023-04-17T21:07:46.047Z,58.99
2023-04-17T21:10:12.586Z,59.21
2023-04-17T21:12:39.070Z,58.74
2023-04-17T21:15:06.853Z,58.61
2023-04-17T21:17:33.365Z,58.71
2023-04-17T21:19:59.834Z,58.74
2023-04-17T21:22:26.342Z,59.13
2023-04-17T21:24:52.846Z,58.40
2023-04-17T21:27:19.320Z,59.65
2023-04-17T21:29:45.860Z,58.99
2023-04-17T21:32:12.400Z,58.52
2023-04-17T21:34:39.703Z,59.06
2023-04-17T21:37:06.208Z,58.98
2023-04-17T21:39:33.435Z,58.98
2023-04-17T21:42:00.550Z,59.26
2023-04-17T21:44:27.342Z,58.76
2023-04-17T21:46:54.029Z,59.33
2023-04-17T21:49:20.996Z,58.55
2023-04-17T21:51:47.486Z,59.11
2023-04-17T21:54:14.157Z,58.78
2023-04-17T21:56:41.160Z,58.40
2023-04-17T21:59:07.698Z,58.01
2023-04-17T22:01:34.238Z,57.72
2023-04-17T22:04:00.836Z,58.59
2023-04-17T22:06:27.470Z,58.95
2023-04-17T22:08:54.015Z,58.46
2023-04-17T22:11:20.521Z,58.78
2023-04-17T22:13:47.163Z,59.01
2023-04-17T22:16:13.846Z,58.65
2023-04-17T22:18:40.593Z,59.16
2023-04-17T22:21:07.259Z,58.41
2023-04-17T22:23:34.035Z,58.19
2023-04-17T22:26:00.754Z,58.59
2023-04-17T22:28:31.131Z,58.67
2023-04-17T22:30:58.697Z,58.51
2023-04-17T22:33:26.076Z,59.03
2023-04-17T22:35:52.733Z,58.98
2023-04-17T22:38:20.717Z,58.88
2023-04-17T22:40:47.360Z,58.35
2023-04-17T22:43:14.668Z,58.07
2023-04-17T22:45:41.208Z,58.93
2023-04-17T22:48:07.761Z,57.96
2023-04-17T22:50:34.391Z,58.84
2023-04-17T22:53:00.900Z,59.18
2023-04-17T22:55:27.406Z,58.54
2023-04-17T22:57:53.921Z,59.17
2023-04-17T23:00:21.057Z,58.23
2023-04-17T23:02:47.702Z,58.77
2023-04-17T23:05:14.420Z,58.55
2023-04-17T23:07:41.038Z,58.91
2023-04-17T23:10:07.918Z,58.75
2023-04-17T23:12:34.450Z,59.13
2023-04-17T23:15:01.332Z,60.10
2023-04-17T23:17:27.916Z,60.09
2023-04-17T23:19:54.644Z,58.97
2023-04-17T23:22:21.600Z,58.99
2023-04-17T23:24:48.207Z,59.43
2023-04-17T23:27:14.760Z,59.19
2023-04-17T23:29:41.441Z,59.00
2023-04-17T23:32:08.114Z,58.70
2023-04-17T23:34:35.901Z,58.98
2023-04-17T23:37:02.843Z,58.24
2023-04-17T23:39:29.504Z,58.74
2023-04-17T23:41:57.526Z,58.84
2023-04-17T23:44:23.903Z,58.39
2023-04-17T23:46:50.996Z,58.11
2023-04-17T23:49:17.538Z,58.60
2023-04-17T23:51:44.045Z,58.67
2023-04-17T23:54:10.613Z,58.27
2023-04-17T23:56:37.550Z,58.35
2023-04-17T23:59:04.015Z,58.68
